Time;durP1;ratioP1;P1;durP2;ratioP2;P2;SDS_P1;SDS_P2;PMS_P1;PMS_P2;Temp;Humidity;BMP_temperature;BMP_pressure;BME280_temperature;BME280_humidity;BME280_pressure;Samples;Min_cycle;Max_cycle;Signal;HPM_P1;HPM_P2
2023/10/29 00:01:47;;;;;;;0.70;0.50;;;;;;;;;;5019074;28;20206;-57
2023/10/29 00:04:15;;;;;;;2.63;0.88;;;;;;;;;;5019117;28;20725;-57
2023/10/29 00:06:42;;;;;;;0.68;0.63;;;;;;;;;;5018713;28;20240;-57
2023/10/29 00:09:10;;;;;;;1.50;0.60;;;;;;;;;;5019028;28;20513;-57
2023/10/29 00:11:38;;;;;;;0.60;0.50;;;;;;;;;;5019377;28;20277;-57
2023/10/29 00:14:06;;;;;;;0.73;0.47;;;;;;;;;;5019015;28;20214;-57
2023/10/29 00:16:33;;;;;;;1.25;0.68;;;;;;;;;;5018991;28;20310;-57
2023/10/29 00:19:02;;;;;;;1.85;0.60;;;;;;;;;;5019120;28;20204;-57
2023/10/29 00:21:30;;;;;;;1.17;0.60;;;;;;;;;;5019004;28;20265;-57
2023/10/29 00:23:57;;;;;;;0.88;0.40;;;;;;;;;;5017661;28;20235;-57
2023/10/29 00:26:25;;;;;;;0.52;0.52;;;;;;;;;;5018985;28;20230;-57
2023/10/29 00:28:52;;;;;;;1.27;0.50;;;;;;;;;;5017952;28;20778;-57
2023/10/29 00:31:20;;;;;;;1.00;0.70;;;;;;;;;;5019223;28;20206;-57
2023/10/29 00:33:47;;;;;;;1.80;0.75;;;;;;;;;;5019126;28;20210;-58
2023/10/29 00:36:16;;;;;;;1.67;0.63;;;;;;;;;;5018928;28;20586;-58
2023/10/29 00:38:43;;;;;;;1.50;0.68;;;;;;;;;;5018684;28;20210;-58
2023/10/29 00:41:11;;;;;;;0.70;0.60;;;;;;;;;;5018703;28;20244;-57
2023/10/29 00:43:41;;;;;;;1.33;0.70;;;;;;;;;;5018469;28;20313;-57
2023/10/29 00:46:09;;;;;;;1.00;0.70;;;;;;;;;;5018536;28;20246;-57
2023/10/29 00:48:37;;;;;;;1.42;0.73;;;;;;;;;;5017677;28;20212;-58
2023/10/29 00:51:05;;;;;;;1.65;0.90;;;;;;;;;;5018107;28;20231;-58
2023/10/29 00:53:35;;;;;;;1.23;0.70;;;;;;;;;;5018304;28;20612;-58
2023/10/29 00:56:03;;;;;;;0.73;0.68;;;;;;;;;;5018589;28;20602;-58
2023/10/29 00:58:31;;;;;;;0.70;0.60;;;;;;;;;;5018349;28;20269;-57
2023/10/29 01:00:58;;;;;;;0.70;0.65;;;;;;;;;;5018243;28;20206;-58
2023/10/29 01:03:26;;;;;;;2.55;0.82;;;;;;;;;;5018559;28;20217;-58
2023/10/29 01:05:53;;;;;;;1.02;0.68;;;;;;;;;;5018223;28;20602;-58
2023/10/29 01:08:21;;;;;;;1.23;0.55;;;;;;;;;;5018454;28;20217;-58
2023/10/29 01:10:51;;;;;;;0.90;0.60;;;;;;;;;;5018702;28;20210;-58
2023/10/29 01:13:18;;;;;;;0.63;0.63;;;;;;;;;;5017563;28;20329;-58
2023/10/29 01:15:46;;;;;;;1.40;0.55;;;;;;;;;;5017826;28;20606;-57
2023/10/29 01:18:13;;;;;;;2.00;0.70;;;;;;;;;;5018007;28;20206;-57
2023/10/29 01:20:40;;;;;;;0.65;0.50;;;;;;;;;;5017770;28;20217;-57
2023/10/29 01:23:08;;;;;;;0.70;0.60;;;;;;;;;;5017862;28;20536;-58
2023/10/29 01:25:38;;;;;;;0.77;0.60;;;;;;;;;;5017859;28;20206;-58
2023/10/29 01:28:07;;;;;;;0.65;0.65;;;;;;;;;;5017538;28;20324;-58
2023/10/29 01:30:34;;;;;;;0.70;0.70;;;;;;;;;;5018334;28;20286;-57
2023/10/29 01:33:02;;;;;;;1.00;0.68;;;;;;;;;;5017855;28;20226;-57
2023/10/29 01:35:29;;;;;;;1.27;0.70;;;;;;;;;;5017809;28;20217;-57
2023/10/29 01:37:56;;;;;;;0.90;0.60;;;;;;;;;;5016726;28;20198;-57
2023/10/29 01:40:24;;;;;;;0.88;0.68;;;;;;;;;;5018132;28;20206;-58
2023/10/29 01:42:52;;;;;;;0.65;0.52;;;;;;;;;;5016679;28;20218;-57
2023/10/29 01:45:20;;;;;;;0.80;0.80;;;;;;;;;;5017931;28;20214;-57
2023/10/29 01:47:48;;;;;;;1.48;0.88;;;;;;;;;;5017611;28;20230;-57
2023/10/29 01:50:15;;;;;;;0.93;0.60;;;;;;;;;;5016939;28;20206;-57
2023/10/29 01:52:43;;;;;;;0.70;0.50;;;;;;;;;;5017758;28;20245;-57
2023/10/29 01:55:10;;;;;;;0.82;0.70;;;;;;;;;;5017453;28;20206;-57
2023/10/29 01:57:38;;;;;;;1.45;0.70;;;;;;;;;;5017620;28;20205;-57
2023/10/29 02:00:06;;;;;;;0.52;0.52;;;;;;;;;;5017348;28;20214;-57
2023/10/29 02:02:35;;;;;;;0.65;0.65;;;;;;;;;;5017120;28;20687;-57
2023/10/29 02:05:04;;;;;;;1.50;0.50;;;;;;;;;;5017513;28;20198;-57
2023/10/29 02:07:32;;;;;;;0.77;0.57;;;;;;;;;;5017246;28;20273;-57
2023/10/29 02:09:59;;;;;;;2.40;0.60;;;;;;;;;;5017855;28;20457;-57
2023/10/29 02:12:26;;;;;;;2.45;0.60;;;;;;;;;;5017419;28;20218;-57
2023/10/29 02:14:54;;;;;;;1.52;0.70;;;;;;;;;;5017203;28;20214;-57
2023/10/29 02:17:24;;;;;;;0.68;0.63;;;;;;;;;;5017450;28;20444;-57
2023/10/29 02:19:55;;;;;;;0.80;0.80;;;;;;;;;;5017475;28;20578;-57
2023/10/29 02:22:24;;;;;;;0.80;0.47;;;;;;;;;;5017108;28;20206;-57
2023/10/29 02:24:51;;;;;;;1.10;0.90;;;;;;;;;;5017644;28;20206;-57
2023/10/29 02:27:19;;;;;;;1.10;0.70;;;;;;;;;;5017398;28;20323;-57
2023/10/29 02:29:46;;;;;;;1.40;0.80;;;;;;;;;;5017467;28;20210;-58
2023/10/29 02:32:14;;;;;;;0.80;0.68;;;;;;;;;;5021296;28;20237;-58
2023/10/29 02:34:41;;;;;;;1.45;0.80;;;;;;;;;;5021316;28;20210;-57
2023/10/29 02:37:08;;;;;;;0.60;0.60;;;;;;;;;;5021078;28;20649;-57
2023/10/29 02:39:37;;;;;;;0.68;0.60;;;;;;;;;;5021278;28;20220;-57
2023/10/29 02:42:05;;;;;;;1.25;0.60;;;;;;;;;;5020888;28;20471;-57
2023/10/29 02:44:33;;;;;;;0.90;0.60;;;;;;;;;;5020718;28;20221;-57
2023/10/29 02:47:00;;;;;;;1.38;0.80;;;;;;;;;;5020983;28;20230;-57
2023/10/29 02:49:27;;;;;;;0.98;0.65;;;;;;;;;;5021302;28;20213;-58
2023/10/29 02:51:55;;;;;;;1.05;0.70;;;;;;;;;;5020464;28;20302;-58
2023/10/29 02:54:22;;;;;;;0.75;0.60;;;;;;;;;;5021000;28;20217;-58
2023/10/29 02:56:51;;;;;;;0.60;0.50;;;;;;;;;;5020440;28;20610;-58
2023/10/29 02:59:18;;;;;;;1.77;0.80;;;;;;;;;;5020966;28;20210;-58
2023/10/29 03:01:46;;;;;;;1.02;0.88;;;;;;;;;;5020682;28;20206;-58
2023/10/29 03:04:13;;;;;;;2.05;0.70;;;;;;;;;;5020767;28;20597;-58
2023/10/29 03:06:41;;;;;;;0.70;0.60;;;;;;;;;;5020791;28;20226;-57
2023/10/29 03:09:09;;;;;;;0.63;0.60;;;;;;;;;;5020770;28;20217;-57
2023/10/29 03:11:37;;;;;;;1.27;0.70;;;;;;;;;;5020629;28;20260;-57
2023/10/29 03:14:06;;;;;;;0.75;0.70;;;;;;;;;;5020557;28;20213;-57
2023/10/29 03:16:33;;;;;;;0.70;0.70;;;;;;;;;;5020780;28;20281;-57
2023/10/29 03:19:01;;;;;;;0.70;0.70;;;;;;;;;;5020736;28;20221;-57
2023/10/29 03:21:28;;;;;;;0.80;0.80;;;;;;;;;;5020453;28;20206;-57
2023/10/29 03:23:55;;;;;;;1.13;0.70;;;;;;;;;;5020124;28;20214;-57
2023/10/29 03:26:23;;;;;;;0.80;0.68;;;;;;;;;;5020457;28;20217;-57
2023/10/29 03:28:50;;;;;;;1.30;0.93;;;;;;;;;;5020060;28;20214;-57
2023/10/29 03:31:19;;;;;;;0.80;0.80;;;;;;;;;;5020148;28;20613;-57
2023/10/29 03:33:47;;;;;;;1.40;0.80;;;;;;;;;;5020271;28;20272;-57
2023/10/29 03:36:14;;;;;;;0.70;0.70;;;;;;;;;;5020326;28;20656;-57
2023/10/29 03:38:42;;;;;;;1.05;0.80;;;;;;;;;;5019948;28;20300;-57
2023/10/29 03:41:20;;;;;;;1.42;0.90;;;;;;;;;;5019789;28;20225;-57
2023/10/29 03:43:47;;;;;;;1.55;0.98;;;;;;;;;;5019505;28;20206;-57
2023/10/29 03:46:15;;;;;;;0.82;0.75;;;;;;;;;;5020188;28;20228;-57
2023/10/29 03:48:45;;;;;;;0.82;0.80;;;;;;;;;;5019687;28;20234;-57
2023/10/29 03:51:13;;;;;;;1.17;0.80;;;;;;;;;;5019459;28;20238;-57
2023/10/29 03:53:41;;;;;;;2.33;1.00;;;;;;;;;;5019887;28;20206;-57
2023/10/29 03:56:09;;;;;;;1.05;0.80;;;;;;;;;;5019781;28;20207;-57
2023/10/29 03:58:36;;;;;;;0.98;0.80;;;;;;;;;;5019684;28;20207;-57
2023/10/29 04:01:04;;;;;;;1.40;0.80;;;;;;;;;;5019850;28;20214;-57
2023/10/29 04:03:31;;;;;;;0.90;0.80;;;;;;;;;;5019521;28;20202;-57
2023/10/29 04:06:00;;;;;;;1.45;1.00;;;;;;;;;;5019265;28;20199;-57
2023/10/29 04:08:27;;;;;;;1.45;1.05;;;;;;;;;;5019643;28;20230;-57
2023/10/29 04:10:55;;;;;;;1.55;1.00;;;;;;;;;;5019251;28;20213;-57
2023/10/29 04:13:22;;;;;;;1.17;1.00;;;;;;;;;;5019406;28;20214;-57
2023/10/29 04:15:49;;;;;;;1.45;0.80;;;;;;;;;;5019422;28;20217;-57
2023/10/29 04:18:17;;;;;;;0.80;0.80;;;;;;;;;;5019232;28;20261;-57
2023/10/29 04:20:44;;;;;;;1.15;0.93;;;;;;;;;;5019309;28;20206;-57
2023/10/29 04:23:13;;;;;;;1.23;0.95;;;;;;;;;;5019084;28;20221;-57
2023/10/29 04:25:43;;;;;;;1.00;0.90;;;;;;;;;;5019152;28;20232;-57
2023/10/29 04:28:12;;;;;;;0.80;0.80;;;;;;;;;;5019419;28;20237;-57
2023/10/29 04:30:39;;;;;;;0.93;0.80;;;;;;;;;;5019100;28;20214;-62
2023/10/29 04:33:07;;;;;;;1.52;0.98;;;;;;;;;;5019119;28;20233;-58
2023/10/29 04:35:35;;;;;;;1.58;0.90;;;;;;;;;;5019099;28;20207;-57
2023/10/29 04:38:02;;;;;;;1.10;1.00;;;;;;;;;;5018918;28;20213;-57
2023/10/29 04:40:31;;;;;;;1.05;0.90;;;;;;;;;;5018774;28;20210;-57
2023/10/29 04:42:58;;;;;;;1.10;0.85;;;;;;;;;;5018926;28;20516;-57
2023/10/29 04:45:25;;;;;;;1.42;1.10;;;;;;;;;;5019070;28;20206;-57
2023/10/29 04:47:53;;;;;;;1.10;1.00;;;;;;;;;;5018811;28;20227;-57
2023/10/29 04:50:21;;;;;;;1.13;0.90;;;;;;;;;;5019264;28;20449;-57
2023/10/29 04:52:48;;;;;;;1.25;0.90;;;;;;;;;;5018235;28;20233;-57
2023/10/29 04:55:15;;;;;;;1.30;1.00;;;;;;;;;;5018062;28;20206;-57
2023/10/29 04:57:44;;;;;;;1.23;1.00;;;;;;;;;;5018344;28;20210;-57
2023/10/29 05:00:12;;;;;;;1.30;0.90;;;;;;;;;;5018452;28;20206;-57
2023/10/29 05:02:39;;;;;;;0.77;0.77;;;;;;;;;;5018424;28;20206;-57
2023/10/29 05:05:10;;;;;;;1.58;0.80;;;;;;;;;;5018359;28;20217;-57
2023/10/29 05:07:37;;;;;;;1.80;0.93;;;;;;;;;;5018392;28;20234;-58
2023/10/29 05:10:05;;;;;;;1.08;0.95;;;;;;;;;;5018332;28;20217;-57
2023/10/29 05:12:32;;;;;;;0.80;0.80;;;;;;;;;;5018186;28;20206;-57
2023/10/29 05:15:01;;;;;;;1.05;0.95;;;;;;;;;;5018184;28;20206;-58
2023/10/29 05:17:28;;;;;;;1.05;0.80;;;;;;;;;;5018477;28;20216;-58
2023/10/29 05:19:56;;;;;;;1.10;0.88;;;;;;;;;;5017989;28;20543;-57
2023/10/29 05:22:23;;;;;;;0.75;0.75;;;;;;;;;;5017848;28;20244;-57
2023/10/29 05:24:51;;;;;;;1.00;0.63;;;;;;;;;;5018016;28;20221;-57
2023/10/29 05:27:18;;;;;;;0.93;0.75;;;;;;;;;;5018023;28;20643;-57
2023/10/29 05:29:46;;;;;;;1.77;0.90;;;;;;;;;;5017809;28;20481;-57
2023/10/29 05:32:15;;;;;;;0.88;0.88;;;;;;;;;;5018081;28;20214;-57
2023/10/29 05:34:42;;;;;;;1.15;0.80;;;;;;;;;;5018247;28;20199;-57
2023/10/29 05:37:09;;;;;;;0.82;0.82;;;;;;;;;;5017629;28;20217;-57
2023/10/29 05:39:37;;;;;;;1.58;0.95;;;;;;;;;;5018055;28;20221;-57
2023/10/29 05:42:05;;;;;;;1.73;0.80;;;;;;;;;;5017579;28;20206;-57
2023/10/29 05:44:33;;;;;;;1.38;0.80;;;;;;;;;;5017606;28;20206;-57
2023/10/29 05:47:00;;;;;;;1.40;0.88;;;;;;;;;;5017688;28;20233;-57
2023/10/29 05:49:29;;;;;;;0.95;0.70;;;;;;;;;;5017598;28;20605;-57
2023/10/29 05:51:56;;;;;;;1.10;0.82;;;;;;;;;;5017082;28;20310;-57
2023/10/29 05:54:24;;;;;;;0.60;0.60;;;;;;;;;;5017202;28;20206;-57
2023/10/29 05:56:51;;;;;;;0.70;0.70;;;;;;;;;;5017430;28;20206;-57
2023/10/29 05:59:20;;;;;;;0.60;0.60;;;;;;;;;;5017723;28;20214;-57
2023/10/29 06:01:47;;;;;;;1.02;0.75;;;;;;;;;;5017797;28;20494;-57
2023/10/29 06:04:15;;;;;;;0.80;0.80;;;;;;;;;;5017522;28;20203;-57
2023/10/29 06:06:44;;;;;;;0.80;0.80;;;;;;;;;;5016724;28;20213;-57
2023/10/29 06:09:11;;;;;;;0.80;0.80;;;;;;;;;;5017491;28;20241;-57
2023/10/29 06:11:42;;;;;;;0.60;0.60;;;;;;;;;;5017009;28;20606;-57
2023/10/29 06:14:09;;;;;;;0.70;0.70;;;;;;;;;;5017307;28;20210;-57
2023/10/29 06:16:37;;;;;;;0.80;0.80;;;;;;;;;;5017024;28;20217;-57
2023/10/29 06:19:04;;;;;;;0.80;0.77;;;;;;;;;;5017008;28;20202;-57
2023/10/29 06:21:32;;;;;;;0.75;0.70;;;;;;;;;;5016919;28;20601;-57
2023/10/29 06:24:00;;;;;;;0.75;0.70;;;;;;;;;;5016907;28;20244;-57
2023/10/29 06:26:28;;;;;;;0.70;0.70;;;;;;;;;;5017414;28;20212;-57
2023/10/29 06:28:55;;;;;;;0.85;0.73;;;;;;;;;;5016827;28;20221;-57
2023/10/29 06:31:29;;;;;;;0.77;0.77;;;;;;;;;;5016359;28;20214;-58
2023/10/29 06:33:56;;;;;;;0.77;0.70;;;;;;;;;;5017136;28;20207;-58
2023/10/29 06:36:24;;;;;;;0.80;0.70;;;;;;;;;;5016771;28;20217;-58
2023/10/29 06:38:51;;;;;;;0.70;0.70;;;;;;;;;;5016874;28;20285;-58
2023/10/29 06:41:20;;;;;;;1.60;0.80;;;;;;;;;;5016754;28;20203;-58
2023/10/29 06:43:47;;;;;;;0.80;0.80;;;;;;;;;;5017164;28;20716;-57
2023/10/29 06:46:16;;;;;;;0.65;0.65;;;;;;;;;;5017292;28;20206;-57
2023/10/29 06:48:44;;;;;;;1.02;0.88;;;;;;;;;;5016790;28;20230;-58
2023/10/29 06:51:11;;;;;;;1.52;0.75;;;;;;;;;;5016380;28;20249;-58
2023/10/29 06:53:38;;;;;;;0.70;0.60;;;;;;;;;;5017182;28;20278;-58
2023/10/29 06:56:06;;;;;;;0.90;0.70;;;;;;;;;;5016953;28;20203;-58
2023/10/29 06:58:35;;;;;;;0.85;0.70;;;;;;;;;;5016523;28;20590;-58
2023/10/29 07:01:05;;;;;;;1.17;0.70;;;;;;;;;;5016828;28;20207;-57
2023/10/29 07:03:33;;;;;;;0.75;0.75;;;;;;;;;;5016578;28;20206;-57
2023/10/29 07:06:07;;;;;;;1.02;0.98;;;;;;;;;;5016509;28;20214;-57
2023/10/29 07:08:35;;;;;;;1.10;0.70;;;;;;;;;;5016643;28;20757;-57
2023/10/29 07:11:02;;;;;;;1.15;0.70;;;;;;;;;;5016494;28;20293;-57
2023/10/29 07:13:30;;;;;;;0.90;0.77;;;;;;;;;;5016975;28;20206;-57
2023/10/29 07:16:00;;;;;;;0.63;0.63;;;;;;;;;;5016445;28;20217;-57
2023/10/29 07:18:27;;;;;;;0.70;0.70;;;;;;;;;;5019417;28;20209;-57
2023/10/29 07:20:55;;;;;;;0.70;0.70;;;;;;;;;;5019857;28;20213;-57
2023/10/29 07:23:23;;;;;;;1.13;0.80;;;;;;;;;;5019980;28;20214;-57
2023/10/29 07:25:50;;;;;;;0.63;0.63;;;;;;;;;;5018917;28;20206;-57
2023/10/29 07:28:18;;;;;;;0.80;0.80;;;;;;;;;;5020014;28;20226;-57
2023/10/29 07:30:45;;;;;;;0.75;0.75;;;;;;;;;;5020090;28;20488;-57
2023/10/29 07:33:14;;;;;;;0.88;0.80;;;;;;;;;;5020006;28;20202;-57
2023/10/29 07:35:41;;;;;;;1.33;0.85;;;;;;;;;;5019892;28;20210;-58
2023/10/29 07:38:09;;;;;;;0.80;0.68;;;;;;;;;;5019296;28;20232;-58
2023/10/29 07:40:36;;;;;;;0.98;0.70;;;;;;;;;;5019486;28;20212;-58
2023/10/29 07:43:04;;;;;;;0.88;0.60;;;;;;;;;;5019835;28;20214;-58
2023/10/29 07:45:32;;;;;;;0.63;0.50;;;;;;;;;;5019360;28;20472;-57
2023/10/29 07:47:59;;;;;;;0.60;0.60;;;;;;;;;;5018982;28;20214;-57
2023/10/29 07:50:28;;;;;;;0.60;0.60;;;;;;;;;;5019658;28;20206;-57
2023/10/29 07:52:55;;;;;;;1.33;0.70;;;;;;;;;;5018741;28;20253;-57
2023/10/29 07:55:23;;;;;;;0.70;0.60;;;;;;;;;;5019588;28;20210;-57
2023/10/29 07:57:51;;;;;;;0.82;0.60;;;;;;;;;;5019328;28;20463;-57
2023/10/29 08:00:19;;;;;;;0.70;0.70;;;;;;;;;;5019246;28;20214;-57
2023/10/29 08:02:46;;;;;;;0.70;0.70;;;;;;;;;;5019086;28;20206;-57
2023/10/29 08:05:14;;;;;;;0.70;0.70;;;;;;;;;;5017964;28;20206;-57
2023/10/29 08:07:43;;;;;;;0.52;0.52;;;;;;;;;;5019341;28;20248;-57
2023/10/29 08:10:11;;;;;;;0.60;0.60;;;;;;;;;;5019438;28;20237;-57
2023/10/29 08:12:39;;;;;;;0.82;0.70;;;;;;;;;;5018800;28;20206;-57
2023/10/29 08:15:07;;;;;;;0.80;0.80;;;;;;;;;;5019446;28;20571;-58
2023/10/29 08:17:34;;;;;;;0.93;0.70;;;;;;;;;;5018614;28;20614;-58
2023/10/29 08:20:02;;;;;;;0.82;0.82;;;;;;;;;;5019227;28;20206;-58
2023/10/29 08:22:30;;;;;;;0.70;0.70;;;;;;;;;;5018384;28;20761;-58
2023/10/29 08:24:59;;;;;;;1.00;0.80;;;;;;;;;;5018935;28;20206;-58
2023/10/29 08:27:26;;;;;;;1.10;1.00;;;;;;;;;;5018960;28;20233;-57
2023/10/29 08:29:54;;;;;;;0.82;0.80;;;;;;;;;;5018060;28;20306;-57
2023/10/29 08:32:21;;;;;;;0.88;0.63;;;;;;;;;;5018564;28;20603;-57
2023/10/29 08:34:49;;;;;;;0.85;0.63;;;;;;;;;;5018356;28;20217;-57
2023/10/29 08:37:17;;;;;;;0.73;0.73;;;;;;;;;;5018494;28;20206;-57
2023/10/29 08:39:44;;;;;;;0.93;0.80;;;;;;;;;;5018921;28;20670;-58
2023/10/29 08:42:13;;;;;;;0.75;0.70;;;;;;;;;;5018438;28;20214;-58
2023/10/29 08:44:40;;;;;;;0.82;0.75;;;;;;;;;;5018023;28;20206;-58
2023/10/29 08:47:07;;;;;;;0.80;0.75;;;;;;;;;;5018087;28;20209;-57
2023/10/29 08:49:35;;;;;;;0.93;0.82;;;;;;;;;;5017422;28;20537;-57
2023/10/29 08:52:02;;;;;;;1.17;0.68;;;;;;;;;;5017578;28;20250;-57
2023/10/29 08:54:30;;;;;;;1.25;1.00;;;;;;;;;;5017698;28;20206;-57
2023/10/29 08:56:57;;;;;;;1.08;0.80;;;;;;;;;;5017635;28;20293;-57
2023/10/29 08:59:26;;;;;;;1.13;0.85;;;;;;;;;;5017857;28;20282;-57
2023/10/29 09:01:53;;;;;;;0.85;0.80;;;;;;;;;;5017506;28;20206;-57
2023/10/29 09:04:22;;;;;;;0.68;0.68;;;;;;;;;;5017755;28;20273;-57
2023/10/29 09:06:49;;;;;;;0.65;0.65;;;;;;;;;;5017354;28;20296;-58
2023/10/29 09:09:17;;;;;;;0.60;0.60;;;;;;;;;;5017835;28;20246;-57
2023/10/29 09:11:46;;;;;;;0.75;0.70;;;;;;;;;;5017532;28;20207;-57
2023/10/29 09:14:14;;;;;;;0.80;0.80;;;;;;;;;;5017323;28;20215;-57
2023/10/29 09:16:47;;;;;;;0.60;0.60;;;;;;;;;;5016953;28;20216;-57
2023/10/29 09:19:14;;;;;;;0.77;0.77;;;;;;;;;;5017492;28;20202;-57
2023/10/29 09:21:41;;;;;;;1.13;0.80;;;;;;;;;;5017082;28;20221;-57
2023/10/29 09:24:09;;;;;;;1.17;0.63;;;;;;;;;;5017056;28;20207;-57
2023/10/29 09:26:37;;;;;;;1.25;0.80;;;;;;;;;;5017137;28;20210;-57
2023/10/29 09:29:04;;;;;;;0.77;0.70;;;;;;;;;;5016706;28;20226;-58
2023/10/29 09:31:32;;;;;;;1.38;0.90;;;;;;;;;;5017113;28;20206;-58
2023/10/29 09:34:01;;;;;;;1.23;0.70;;;;;;;;;;5016336;28;20202;-57
2023/10/29 09:36:29;;;;;;;0.80;0.80;;;;;;;;;;5016593;28;20457;-57
2023/10/29 09:38:56;;;;;;;0.60;0.60;;;;;;;;;;5016451;28;20202;-57
2023/10/29 09:41:23;;;;;;;1.08;0.80;;;;;;;;;;5016205;28;20206;-57
2023/10/29 09:43:53;;;;;;;0.70;0.70;;;;;;;;;;5016980;28;20648;-58
2023/10/29 09:46:22;;;;;;;0.70;0.70;;;;;;;;;;5017565;28;20229;-58
2023/10/29 09:48:50;;;;;;;1.60;0.80;;;;;;;;;;5016557;28;20296;-58
2023/10/29 09:51:19;;;;;;;1.42;0.73;;;;;;;;;;5015661;28;20234;-58
2023/10/29 09:53:46;;;;;;;1.55;0.70;;;;;;;;;;5016369;28;20217;-57
2023/10/29 09:56:14;;;;;;;1.10;0.65;;;;;;;;;;5016047;28;20207;-57
2023/10/29 09:58:42;;;;;;;0.75;0.70;;;;;;;;;;5015613;28;20209;-57
2023/10/29 10:01:09;;;;;;;0.80;0.68;;;;;;;;;;5015575;28;20202;-57
2023/10/29 10:03:37;;;;;;;0.80;0.60;;;;;;;;;;5015536;28;20218;-57
2023/10/29 10:06:04;;;;;;;1.30;1.00;;;;;;;;;;5016072;28;20224;-57
2023/10/29 10:08:33;;;;;;;0.75;0.70;;;;;;;;;;5015847;28;20285;-58
2023/10/29 10:11:02;;;;;;;0.70;0.70;;;;;;;;;;5016316;28;20206;-58
2023/10/29 10:13:39;;;;;;;0.70;0.70;;;;;;;;;;5016680;28;20207;-58
2023/10/29 10:16:10;;;;;;;0.98;0.80;;;;;;;;;;5015756;28;20210;-58
2023/10/29 10:18:54;;;;;;;1.05;0.70;;;;;;;;;;5015841;28;20306;-58
2023/10/29 10:21:23;;;;;;;1.33;0.70;;;;;;;;;;5016075;28;20206;-57
2023/10/29 10:23:52;;;;;;;1.95;0.77;;;;;;;;;;5016201;28;20206;-57
2023/10/29 10:26:28;;;;;;;1.02;0.80;;;;;;;;;;5015833;28;20210;-57
2023/10/29 10:28:56;;;;;;;2.45;0.80;;;;;;;;;;5015633;28;20206;-57
2023/10/29 10:31:25;;;;;;;0.77;0.60;;;;;;;;;;5016790;28;20210;-57
2023/10/29 10:33:53;;;;;;;1.30;0.93;;;;;;;;;;5016331;28;20213;-57
2023/10/29 10:36:32;;;;;;;1.67;0.80;;;;;;;;;;5016739;28;20260;-57
2023/10/29 10:39:01;;;;;;;1.15;0.93;;;;;;;;;;5015945;28;20210;-57
2023/10/29 10:41:41;;;;;;;1.35;0.73;;;;;;;;;;5016616;28;20206;-57
2023/10/29 10:44:10;;;;;;;0.80;0.77;;;;;;;;;;5016011;28;20220;-57
2023/10/29 10:46:39;;;;;;;0.70;0.70;;;;;;;;;;5016520;28;20448;-57
2023/10/29 10:49:07;;;;;;;1.17;0.80;;;;;;;;;;5015908;28;20317;-57
2023/10/29 10:51:36;;;;;;;1.65;0.70;;;;;;;;;;5017400;28;20265;-57
2023/10/29 10:54:06;;;;;;;1.17;0.80;;;;;;;;;;5019878;28;20213;-57
2023/10/29 10:56:35;;;;;;;1.88;1.00;;;;;;;;;;5019782;28;20493;-57
2023/10/29 10:59:04;;;;;;;1.20;1.02;;;;;;;;;;5019670;28;20246;-57
2023/10/29 11:01:32;;;;;;;0.80;0.80;;;;;;;;;;5019861;28;20288;-57
2023/10/29 11:04:01;;;;;;;1.02;0.75;;;;;;;;;;5019262;28;20210;-57
2023/10/29 11:06:29;;;;;;;0.90;0.77;;;;;;;;;;5019263;28;20212;-57
2023/10/29 11:08:57;;;;;;;1.63;0.90;;;;;;;;;;5019934;28;20198;-57
2023/10/29 11:11:27;;;;;;;2.15;0.70;;;;;;;;;;5019362;28;20206;-57
2023/10/29 11:14:09;;;;;;;2.58;0.88;;;;;;;;;;5019576;28;20218;-57
2023/10/29 11:16:46;;;;;;;1.00;0.90;;;;;;;;;;5019224;28;20214;-57
2023/10/29 11:19:32;;;;;;;1.30;0.70;;;;;;;;;;5019317;28;20210;-57
2023/10/29 11:22:13;;;;;;;0.95;0.70;;;;;;;;;;5018819;28;20210;-57
2023/10/29 11:24:41;;;;;;;1.63;0.98;;;;;;;;;;5018640;28;20210;-57
2023/10/29 11:27:27;;;;;;;1.48;0.70;;;;;;;;;;5018644;28;20288;-57
2023/10/29 11:30:12;;;;;;;0.82;0.68;;;;;;;;;;5019353;28;20226;-57
2023/10/29 11:32:39;;;;;;;1.25;0.70;;;;;;;;;;5019392;28;20214;-57
2023/10/29 11:35:20;;;;;;;0.90;0.75;;;;;;;;;;5019295;28;20217;-58
2023/10/29 11:37:48;;;;;;;0.80;0.80;;;;;;;;;;5018909;28;20238;-57
2023/10/29 11:40:35;;;;;;;0.88;0.80;;;;;;;;;;5018595;28;20202;-57
2023/10/29 11:43:16;;;;;;;1.33;0.68;;;;;;;;;;5018220;28;20206;-57
2023/10/29 11:45:54;;;;;;;0.80;0.80;;;;;;;;;;5018467;28;20284;-57
2023/10/29 11:48:21;;;;;;;0.85;0.70;;;;;;;;;;5017843;28;20207;-57
2023/10/29 11:51:08;;;;;;;1.05;0.80;;;;;;;;;;5018550;28;20486;-57
2023/10/29 11:53:37;;;;;;;0.60;0.57;;;;;;;;;;5017686;28;20237;-57
2023/10/29 11:56:07;;;;;;;0.98;0.70;;;;;;;;;;5018326;28;20297;-57
2023/10/29 11:58:35;;;;;;;0.70;0.63;;;;;;;;;;5018382;28;20210;-57
2023/10/29 12:01:04;;;;;;;1.33;0.80;;;;;;;;;;5017978;28;20220;-57
2023/10/29 12:03:32;;;;;;;1.98;0.98;;;;;;;;;;5017369;28;20549;-57
2023/10/29 12:05:59;;;;;;;1.13;0.70;;;;;;;;;;5018503;28;20203;-58
2023/10/29 12:08:30;;;;;;;0.70;0.70;;;;;;;;;;5018513;28;20217;-57
2023/10/29 12:10:58;;;;;;;1.00;0.80;;;;;;;;;;5017868;28;20480;-57
2023/10/29 12:13:26;;;;;;;1.30;0.60;;;;;;;;;;5017824;28;20252;-57
2023/10/29 12:15:57;;;;;;;1.05;0.70;;;;;;;;;;5018210;28;20206;-57
2023/10/29 12:18:26;;;;;;;1.00;0.80;;;;;;;;;;5017390;28;20264;-57
2023/10/29 12:21:04;;;;;;;0.90;0.73;;;;;;;;;;5017787;28;20209;-57
2023/10/29 12:23:32;;;;;;;1.42;0.80;;;;;;;;;;5018035;28;20469;-57
2023/10/29 12:26:00;;;;;;;1.15;0.60;;;;;;;;;;5017482;28;20210;-57
2023/10/29 12:28:28;;;;;;;0.88;0.80;;;;;;;;;;5017089;28;20207;-57
2023/10/29 12:30:57;;;;;;;1.08;0.70;;;;;;;;;;5017007;28;20296;-57
2023/10/29 12:33:27;;;;;;;0.70;0.60;;;;;;;;;;5016777;28;20210;-57
2023/10/29 12:35:55;;;;;;;1.08;0.70;;;;;;;;;;5016830;28;20477;-57
2023/10/29 12:38:23;;;;;;;0.73;0.70;;;;;;;;;;5016696;28;20733;-57
2023/10/29 12:41:11;;;;;;;1.27;0.63;;;;;;;;;;5017652;28;20214;-57
2023/10/29 12:43:39;;;;;;;1.33;0.80;;;;;;;;;;5016830;28;20206;-57
2023/10/29 12:46:07;;;;;;;0.70;0.60;;;;;;;;;;5016192;28;20206;-57
2023/10/29 12:48:36;;;;;;;1.15;0.70;;;;;;;;;;5016461;28;20206;-57
2023/10/29 12:51:04;;;;;;;0.80;0.80;;;;;;;;;;5015775;28;20245;-57
2023/10/29 12:53:32;;;;;;;0.68;0.68;;;;;;;;;;5016445;28;20710;-57
2023/10/29 12:56:00;;;;;;;1.00;0.80;;;;;;;;;;5016111;28;20221;-57
2023/10/29 12:58:29;;;;;;;0.75;0.63;;;;;;;;;;5016239;28;20214;-57
2023/10/29 13:00:59;;;;;;;1.10;0.77;;;;;;;;;;5016137;28;20206;-57
2023/10/29 13:03:26;;;;;;;0.90;0.68;;;;;;;;;;5015559;28;20213;-57
2023/10/29 13:05:55;;;;;;;0.70;0.70;;;;;;;;;;5016403;28;20206;-57
2023/10/29 13:08:23;;;;;;;2.25;0.90;;;;;;;;;;5015856;28;20206;-57
2023/10/29 13:10:52;;;;;;;0.80;0.80;;;;;;;;;;5015907;28;20226;-57
2023/10/29 13:13:19;;;;;;;1.33;0.70;;;;;;;;;;5015738;28;20571;-57
2023/10/29 13:15:47;;;;;;;1.08;0.70;;;;;;;;;;5015616;28;20471;-57
2023/10/29 13:18:14;;;;;;;1.58;0.80;;;;;;;;;;5015703;28;20209;-57
2023/10/29 13:20:42;;;;;;;0.85;0.80;;;;;;;;;;5015826;28;20313;-57
2023/10/29 13:23:11;;;;;;;1.02;0.93;;;;;;;;;;5015747;28;20207;-57
2023/10/29 13:25:38;;;;;;;0.82;0.77;;;;;;;;;;5016085;28;20215;-57
2023/10/29 13:28:05;;;;;;;1.05;0.80;;;;;;;;;;5016093;28;20692;-57
2023/10/29 13:30:35;;;;;;;0.90;0.68;;;;;;;;;;5015887;28;20226;-57
2023/10/29 13:33:03;;;;;;;1.08;0.90;;;;;;;;;;5015616;28;20700;-57
2023/10/29 13:35:31;;;;;;;0.80;0.80;;;;;;;;;;5016268;28;20305;-57
2023/10/29 13:37:59;;;;;;;1.40;0.70;;;;;;;;;;5015320;28;20340;-57
2023/10/29 13:40:27;;;;;;;1.00;0.77;;;;;;;;;;5016027;28;20202;-57
2023/10/29 13:42:55;;;;;;;1.02;0.80;;;;;;;;;;5016166;28;20314;-57
2023/10/29 13:45:22;;;;;;;1.10;1.00;;;;;;;;;;5016229;28;20199;-57
2023/10/29 13:47:49;;;;;;;0.73;0.73;;;;;;;;;;5015593;28;20294;-58
2023/10/29 13:50:17;;;;;;;0.55;0.52;;;;;;;;;;5015233;28;20232;-57
2023/10/29 13:52:45;;;;;;;1.48;0.90;;;;;;;;;;5013383;28;20234;-57
2023/10/29 13:55:12;;;;;;;0.73;0.70;;;;;;;;;;5014861;28;20206;-57
2023/10/29 13:57:41;;;;;;;0.80;0.80;;;;;;;;;;5014883;28;20528;-57
2023/10/29 14:00:09;;;;;;;1.10;0.70;;;;;;;;;;5014240;28;20213;-57
2023/10/29 14:02:37;;;;;;;1.02;0.80;;;;;;;;;;5014983;28;20228;-57
2023/10/29 14:05:05;;;;;;;0.77;0.70;;;;;;;;;;5014155;28;20210;-57
2023/10/29 14:07:33;;;;;;;0.93;0.70;;;;;;;;;;5014449;28;20222;-57
2023/10/29 14:10:00;;;;;;;1.23;0.65;;;;;;;;;;5014597;28;20213;-57
2023/10/29 14:12:28;;;;;;;2.72;0.85;;;;;;;;;;5014561;28;20205;-57
2023/10/29 14:14:57;;;;;;;0.98;0.75;;;;;;;;;;5014393;28;20260;-57
2023/10/29 14:17:25;;;;;;;0.70;0.70;;;;;;;;;;5014674;28;20211;-57
2023/10/29 14:19:52;;;;;;;0.93;0.82;;;;;;;;;;5014086;28;20205;-57
2023/10/29 14:22:19;;;;;;;0.90;0.90;;;;;;;;;;5014905;28;20237;-57
2023/10/29 14:24:48;;;;;;;1.63;0.88;;;;;;;;;;5013119;28;20746;-57
2023/10/29 14:27:15;;;;;;;1.08;0.85;;;;;;;;;;5018774;28;20204;-57
2023/10/29 14:29:43;;;;;;;0.82;0.73;;;;;;;;;;5020370;28;20213;-57
2023/10/29 14:32:12;;;;;;;2.05;0.90;;;;;;;;;;5020251;28;20233;-57
2023/10/29 14:34:39;;;;;;;1.20;0.90;;;;;;;;;;5020049;28;20221;-57
2023/10/29 14:37:06;;;;;;;1.13;1.00;;;;;;;;;;5021032;28;20198;-57
2023/10/29 14:39:34;;;;;;;1.60;1.05;;;;;;;;;;5020959;28;20594;-57
2023/10/29 14:42:01;;;;;;;1.75;0.90;;;;;;;;;;5020435;28;20241;-57
2023/10/29 14:44:31;;;;;;;1.63;0.98;;;;;;;;;;5020555;28;20205;-57
2023/10/29 14:46:59;;;;;;;2.17;1.00;;;;;;;;;;5021053;28;20301;-57
2023/10/29 14:49:28;;;;;;;1.75;0.98;;;;;;;;;;5020260;28;20206;-57
2023/10/29 14:51:55;;;;;;;1.58;0.90;;;;;;;;;;4977381;28;1240458;-57